CheckWX is a tool to help pilots better visualize weather data.  It is not intended as a substitute for an official pre-flight weather briefing.

13:23:13 UTC

SBGL TAF
RIOgaleão – Tom Jobim International Airport
Rio De Janeiro, Brazil
TAF SBGL 200900Z 2012/2118 27005KT 9999 FEW015 TN20/2107Z TX29/2116Z BECMG 2015/2017 15010KT SCT020 BECMG 2100/2102 08005KT BECMG 2105/2107 33003KT FEW015 BECMG 2109/2111 36005KT BECMG 2115/2117 14010KT FEW025 RMK PHD

May-20@
12:00 UTC

May-20 @ 12:00 UTC

May-20@
15:00 UTC

May-20 @ 15:00 UTC

TAF SBGL 200900Z 2012/2118 27005KT 9999 FEW015 TN20/2107Z TX29/2116Z
Wind
  • 270° at 5 KTS
Cloud Levels
  • Few at 1,500' AGL

May-20@
15:00 UTC

May-20 @ 15:00 UTC

May-21@
00:00 UTC

May-21 @ 00:00 UTC

BECMG 2015/2017 15010KT SCT020

Becoming

Becoming Conditions expected by Mon, May 20, 2019 @ 17:00 UTC

Wind
  • 150° at 10 KTS
Cloud Levels
  • Scattered at 2,000' AGL

May-21@
00:00 UTC

May-21 @ 00:00 UTC

May-21@
05:00 UTC

May-21 @ 05:00 UTC

BECMG 2100/2102 08005KT

Becoming

Becoming Conditions expected by Tue, May 21, 2019 @ 02:00 UTC

Wind
  • 080° at 5 KTS
Cloud Levels
  • Scattered at 2,000' AGL

May-21@
05:00 UTC

May-21 @ 05:00 UTC

May-21@
09:00 UTC

May-21 @ 09:00 UTC

BECMG 2105/2107 33003KT FEW015

Becoming

Becoming Conditions expected by Tue, May 21, 2019 @ 07:00 UTC

Wind
  • 330° at 3 KTS
Cloud Levels
  • Few at 1,500' AGL

May-21@
09:00 UTC

May-21 @ 09:00 UTC

May-21@
15:00 UTC

May-21 @ 15:00 UTC

BECMG 2109/2111 36005KT

Becoming

Becoming Conditions expected by Tue, May 21, 2019 @ 11:00 UTC

Wind
  • 360° at 5 KTS
Cloud Levels
  • Few at 1,500' AGL

May-21@
15:00 UTC

May-21 @ 15:00 UTC

May-21@
18:00 UTC

May-21 @ 18:00 UTC

BECMG 2115/2117 14010KT FEW025 RMK PHD

Becoming

Becoming Conditions expected by Tue, May 21, 2019 @ 17:00 UTC

Wind
  • 140° at 10 KTS
Cloud Levels
  • Few at 2,500' AGL